createdAt,value
2018-06-25T00:00:35.691Z,53.33
2018-06-25T00:01:35.722Z,53.61
2018-06-25T00:02:36.054Z,53.81
2018-06-25T00:03:35.788Z,53.91
2018-06-25T00:04:35.816Z,53.91
2018-06-25T00:05:35.852Z,54.00
2018-06-25T00:06:35.878Z,54.19
2018-06-25T00:07:35.909Z,54.00
2018-06-25T00:08:36.194Z,54.10
2018-06-25T00:09:35.975Z,54.07
2018-06-25T00:10:36.046Z,54.00
2018-06-25T00:11:36.040Z,54.00
2018-06-25T00:12:36.179Z,53.97
2018-06-25T00:13:36.109Z,53.78
2018-06-25T00:14:36.433Z,53.97
2018-06-25T00:15:36.169Z,53.59
2018-06-25T00:16:36.198Z,53.97
2018-06-25T00:17:36.235Z,53.78
2018-06-25T00:18:36.261Z,53.78
2018-06-25T00:19:36.299Z,53.71
2018-06-25T00:20:36.580Z,53.91
2018-06-25T00:21:36.355Z,53.88
2018-06-25T00:22:36.389Z,53.78
2018-06-25T00:23:36.422Z,53.78
2018-06-25T00:24:36.455Z,53.71
2018-06-25T00:25:36.548Z,53.78
2018-06-25T00:26:36.765Z,53.78
2018-06-25T00:27:36.544Z,53.88
2018-06-25T00:28:36.578Z,53.69
2018-06-25T00:29:36.616Z,53.59
2018-06-25T00:30:36.639Z,53.69
2018-06-25T00:31:36.676Z,54.07
2018-06-25T00:32:36.955Z,53.69
2018-06-25T00:33:36.735Z,54.39
2018-06-25T00:34:36.771Z,54.27
2018-06-25T00:35:36.799Z,54.17
2018-06-25T00:36:36.830Z,54.17
2018-06-25T00:37:36.864Z,54.17
2018-06-25T00:38:37.347Z,54.07
2018-06-25T00:39:36.925Z,53.88
2018-06-25T00:40:36.968Z,54.17
2018-06-25T00:41:36.990Z,54.07
2018-06-25T00:42:37.019Z,54.07
2018-06-25T00:43:37.057Z,54.07
2018-06-25T00:44:37.338Z,54.07
2018-06-25T00:45:37.120Z,54.17
2018-06-25T00:46:37.195Z,54.07
2018-06-25T00:47:37.180Z,54.07
2018-06-25T00:48:37.375Z,53.88
2018-06-25T00:49:37.444Z,53.88
2018-06-25T00:50:37.273Z,54.07
2018-06-25T00:51:37.306Z,53.88
2018-06-25T00:52:37.338Z,53.97
2018-06-25T00:53:37.381Z,54.07
2018-06-25T00:54:37.407Z,53.97
2018-06-25T00:55:37.545Z,54.17
2018-06-25T00:56:37.483Z,54.36
2018-06-25T00:57:37.557Z,54.27
2018-06-25T00:58:37.534Z,53.97
2018-06-25T00:59:37.558Z,53.97
2018-06-25T01:00:37.640Z,54.17
2018-06-25T01:01:37.632Z,54.17
2018-06-25T01:02:37.905Z,54.07
2018-06-25T01:03:37.695Z,54.84
2018-06-25T01:04:37.714Z,54.46
2018-06-25T01:05:37.748Z,54.46
2018-06-25T01:06:37.792Z,54.65
2018-06-25T01:07:37.816Z,54.75
2018-06-25T01:08:37.875Z,54.36
2018-06-25T01:09:38.128Z,54.75
2018-06-25T01:10:37.906Z,54.55
2018-06-25T01:11:37.973Z,54.55
2018-06-25T01:12:37.981Z,54.27
2018-06-25T01:13:38.059Z,54.46
2018-06-25T01:14:38.032Z,54.46
2018-06-25T01:15:38.062Z,54.55
2018-06-25T01:16:38.410Z,54.17
2018-06-25T01:17:38.127Z,54.27
2018-06-25T01:18:38.160Z,54.46
2018-06-25T01:19:38.191Z,54.55
2018-06-25T01:20:38.224Z,54.46
2018-06-25T01:21:38.401Z,54.17
2018-06-25T01:22:38.287Z,54.46
2018-06-25T01:23:38.660Z,54.46
2018-06-25T01:24:38.348Z,54.36
2018-06-25T01:25:38.379Z,54.55
2018-06-25T01:26:38.418Z,54.65
2018-06-25T01:27:38.441Z,54.75
2018-06-25T01:28:38.522Z,54.65
2018-06-25T01:29:38.509Z,54.65
2018-06-25T01:30:38.840Z,54.65
2018-06-25T01:31:38.659Z,54.65
2018-06-25T01:32:38.601Z,54.65
2018-06-25T01:33:38.674Z,54.65
2018-06-25T01:34:38.695Z,54.55
2018-06-25T01:35:38.701Z,54.65
2018-06-25T01:36:38.765Z,54.36
2018-06-25T01:37:39.079Z,54.46
2018-06-25T01:38:38.802Z,54.55
2018-06-25T01:39:38.820Z,54.65
2018-06-25T01:40:38.855Z,54.55
2018-06-25T01:41:38.932Z,54.27
2018-06-25T01:42:38.919Z,54.46
2018-06-25T01:43:38.952Z,54.65
2018-06-25T01:44:39.285Z,54.84
2018-06-25T01:45:39.012Z,54.84
2018-06-25T01:46:39.060Z,54.36
2018-06-25T01:47:39.075Z,54.84
2018-06-25T01:48:39.112Z,54.55
2018-06-25T01:49:39.142Z,54.75
2018-06-25T01:50:39.191Z,54.75
2018-06-25T01:51:39.517Z,54.65
2018-06-25T01:52:39.232Z,54.84
2018-06-25T01:53:39.272Z,54.84
2018-06-25T01:54:39.306Z,54.75
2018-06-25T01:55:39.333Z,54.75
2018-06-25T01:56:39.442Z,54.94
2018-06-25T01:57:39.392Z,55.13
2018-06-25T01:58:39.733Z,55.01
2018-06-25T01:59:39.453Z,55.33
2018-06-25T02:00:39.528Z,55.33
2018-06-25T02:01:39.521Z,55.33
2018-06-25T02:02:39.549Z,55.13
2018-06-25T02:03:39.582Z,55.04
2018-06-25T02:04:39.612Z,55.04
2018-06-25T02:05:39.897Z,55.23
2018-06-25T02:06:39.696Z,55.01
2018-06-25T02:07:39.809Z,55.01
2018-06-25T02:08:39.828Z,55.23
2018-06-25T02:09:39.773Z,55.04
2018-06-25T02:10:39.809Z,55.13
2018-06-25T02:11:39.865Z,55.13
2018-06-25T02:12:40.115Z,55.04
2018-06-25T02:13:39.901Z,55.04
2018-06-25T02:14:39.927Z,55.10
2018-06-25T02:15:39.962Z,55.04
2018-06-25T02:16:39.996Z,55.10
2018-06-25T02:17:40.034Z,55.01
2018-06-25T02:18:40.057Z,55.04
2018-06-25T02:19:40.336Z,54.94
2018-06-25T02:20:40.121Z,55.10
2018-06-25T02:21:40.177Z,55.13
2018-06-25T02:22:40.180Z,55.13
2018-06-25T02:23:40.215Z,55.23
2018-06-25T02:24:40.262Z,54.91
2018-06-25T02:25:40.284Z,55.04
2018-06-25T02:26:40.568Z,55.04
2018-06-25T02:27:40.339Z,55.01
2018-06-25T02:28:40.381Z,54.94
2018-06-25T02:29:40.399Z,54.94
2018-06-25T02:30:40.433Z,55.01
2018-06-25T02:31:40.505Z,55.04
2018-06-25T02:32:40.747Z,55.13
2018-06-25T02:33:40.530Z,55.20
2018-06-25T02:34:40.563Z,55.20
2018-06-25T02:35:40.602Z,55.01
2018-06-25T02:36:40.636Z,55.13
2018-06-25T02:37:40.654Z,55.13
2018-06-25T02:38:41.001Z,55.10
2018-06-25T02:39:40.718Z,55.01
2018-06-25T02:40:40.760Z,55.04
2018-06-25T02:41:40.779Z,55.33
2018-06-25T02:42:40.809Z,55.30
2018-06-25T02:43:40.856Z,55.33
2018-06-25T02:44:41.123Z,55.33
2018-06-25T02:45:40.906Z,54.91
2018-06-25T02:46:40.935Z,55.10
2018-06-25T02:47:40.999Z,55.40
2018-06-25T02:48:40.999Z,54.82
2018-06-25T02:49:41.042Z,55.40
2018-06-25T02:50:41.327Z,55.33
2018-06-25T02:51:41.093Z,55.30
2018-06-25T02:52:41.125Z,55.59
2018-06-25T02:53:41.171Z,55.49
2018-06-25T02:54:41.189Z,55.59
2018-06-25T02:55:41.243Z,55.40
2018-06-25T02:56:41.504Z,55.62
2018-06-25T02:57:41.291Z,55.42
2018-06-25T02:58:41.320Z,55.62
2018-06-25T02:59:41.347Z,55.62
2018-06-25T03:00:41.383Z,55.49
2018-06-25T03:01:41.421Z,55.49
2018-06-25T03:02:41.708Z,55.20
2018-06-25T03:03:41.474Z,55.20
2018-06-25T03:04:41.511Z,55.49
2018-06-25T03:05:41.584Z,55.40
2018-06-25T03:06:41.572Z,55.40
2018-06-25T03:07:41.605Z,55.40
2018-06-25T03:08:41.879Z,55.42
2018-06-25T03:09:41.672Z,55.49
2018-06-25T03:10:41.709Z,55.49
2018-06-25T03:11:41.722Z,55.59
2018-06-25T03:12:41.768Z,55.88
2018-06-25T03:13:41.793Z,55.68
2018-06-25T03:14:42.070Z,55.49
2018-06-25T03:15:41.857Z,55.88
2018-06-25T03:16:41.882Z,55.59
2018-06-25T03:17:41.911Z,55.88
2018-06-25T03:18:42.053Z,55.49
2018-06-25T03:19:41.973Z,55.59
2018-06-25T03:20:42.257Z,55.59
2018-06-25T03:21:42.041Z,55.59
2018-06-25T03:22:42.123Z,55.04
2018-06-25T03:23:42.123Z,55.42
2018-06-25T03:24:42.136Z,55.42
2018-06-25T03:25:42.167Z,55.52
2018-06-25T03:26:42.530Z,55.52
2018-06-25T03:27:42.234Z,55.49
2018-06-25T03:28:42.259Z,55.42
2018-06-25T03:29:42.304Z,55.42
2018-06-25T03:30:42.324Z,55.62
2018-06-25T03:31:42.357Z,55.62
2018-06-25T03:32:42.690Z,55.52
2018-06-25T03:33:42.416Z,55.33
2018-06-25T03:34:42.450Z,55.42
2018-06-25T03:35:42.477Z,55.23
2018-06-25T03:36:42.507Z,55.23
2018-06-25T03:37:42.547Z,55.04
2018-06-25T03:38:42.877Z,55.04
2018-06-25T03:39:42.610Z,55.04
2018-06-25T03:40:42.634Z,54.94
2018-06-25T03:41:42.668Z,54.94
2018-06-25T03:42:42.698Z,55.23
2018-06-25T03:43:42.728Z,55.52
2018-06-25T03:44:42.761Z,55.42
2018-06-25T03:45:43.093Z,55.13
2018-06-25T03:46:42.822Z,55.13
2018-06-25T03:47:42.855Z,54.94
2018-06-25T03:48:42.889Z,55.33
2018-06-25T03:49:43.096Z,55.33
2018-06-25T03:50:42.949Z,55.33
2018-06-25T03:51:42.982Z,55.33
2018-06-25T03:52:43.350Z,55.04
2018-06-25T03:53:43.131Z,55.13
2018-06-25T03:54:43.086Z,55.23
2018-06-25T03:55:43.107Z,55.04
2018-06-25T03:56:43.147Z,54.94
2018-06-25T03:57:43.184Z,55.04
2018-06-25T03:58:43.214Z,55.04
2018-06-25T03:59:43.561Z,55.13
2018-06-25T04:00:43.265Z,55.04
2018-06-25T04:01:43.300Z,55.13
2018-06-25T04:02:43.341Z,54.94
2018-06-25T04:03:43.362Z,55.23
2018-06-25T04:04:43.440Z,54.84
2018-06-25T04:05:43.438Z,54.84
2018-06-25T04:06:43.792Z,54.94
2018-06-25T04:07:43.492Z,54.94
2018-06-25T04:08:43.519Z,55.04
2018-06-25T04:09:43.556Z,55.04
2018-06-25T04:10:43.742Z,55.13
2018-06-25T04:11:43.616Z,55.04
2018-06-25T04:12:43.691Z,55.04
2018-06-25T04:13:43.932Z,55.33
2018-06-25T04:14:43.717Z,55.42
2018-06-25T04:15:43.783Z,55.23
2018-06-25T04:16:43.772Z,55.04
2018-06-25T04:17:43.806Z,55.04
2018-06-25T04:18:43.849Z,55.04
2018-06-25T04:19:43.900Z,55.04
2018-06-25T04:20:44.219Z,55.13
2018-06-25T04:21:43.951Z,55.13
2018-06-25T04:22:43.979Z,55.04
2018-06-25T04:23:44.081Z,55.04
2018-06-25T04:24:44.031Z,54.94
2018-06-25T04:25:44.055Z,55.23
2018-06-25T04:26:44.142Z,55.33
2018-06-25T04:27:44.372Z,55.33
2018-06-25T04:28:44.159Z,55.26
2018-06-25T04:29:44.197Z,55.35
2018-06-25T04:30:44.407Z,55.35
2018-06-25T04:31:44.250Z,55.23
2018-06-25T04:32:44.279Z,55.42
2018-06-25T04:33:44.310Z,55.23
2018-06-25T04:34:44.593Z,55.23
2018-06-25T04:35:44.424Z,55.33
2018-06-25T04:36:44.412Z,55.13
2018-06-25T04:37:44.439Z,55.23
2018-06-25T04:38:44.476Z,55.42
2018-06-25T04:39:44.560Z,55.33
2018-06-25T04:40:44.564Z,54.77
2018-06-25T04:41:44.870Z,54.68
2018-06-25T04:42:44.600Z,54.75
2018-06-25T04:43:44.631Z,54.75
2018-06-25T04:44:44.676Z,54.65
2018-06-25T04:45:44.697Z,54.58
2018-06-25T04:46:44.725Z,54.55
2018-06-25T04:47:44.809Z,54.55
2018-06-25T04:48:45.143Z,54.58
2018-06-25T04:49:44.821Z,54.87
2018-06-25T04:50:44.899Z,54.84
2018-06-25T04:51:44.928Z,55.26
2018-06-25T04:52:44.914Z,55.33
2018-06-25T04:53:44.948Z,55.26
2018-06-25T04:54:44.997Z,55.55
2018-06-25T04:55:45.309Z,55.26
2018-06-25T04:56:45.045Z,55.42
2018-06-25T04:57:45.072Z,55.33
2018-06-25T04:58:45.103Z,54.58
2018-06-25T04:59:45.192Z,54.77
2018-06-25T05:00:45.208Z,54.55
2018-06-25T05:01:45.212Z,54.75
2018-06-25T05:02:45.532Z,54.55
2018-06-25T05:03:45.270Z,54.77
2018-06-25T05:04:45.487Z,54.68
2018-06-25T05:05:45.329Z,54.65
2018-06-25T05:06:45.382Z,54.68
2018-06-25T05:07:45.391Z,54.55
2018-06-25T05:08:45.686Z,54.68
2018-06-25T05:09:45.477Z,54.58
2018-06-25T05:10:45.568Z,54.68
2018-06-25T05:11:45.530Z,54.84
2018-06-25T05:12:45.550Z,54.39
2018-06-25T05:13:45.587Z,54.29
2018-06-25T05:14:46.002Z,54.29
2018-06-25T05:15:45.650Z,54.29
2018-06-25T05:16:45.679Z,54.49
2018-06-25T05:17:45.713Z,54.68
2018-06-25T05:18:45.750Z,54.58
2018-06-25T05:19:45.777Z,54.68
2018-06-25T05:20:46.109Z,54.58
2018-06-25T05:21:45.835Z,54.58
2018-06-25T05:22:45.867Z,54.68
2018-06-25T05:23:45.901Z,54.68
2018-06-25T05:24:45.945Z,54.68
2018-06-25T05:25:45.966Z,54.58
2018-06-25T05:26:46.261Z,54.29
2018-06-25T05:27:46.025Z,54.19
2018-06-25T05:28:46.066Z,54.58
2018-06-25T05:29:46.089Z,54.58
2018-06-25T05:30:46.212Z,54.58
2018-06-25T05:31:46.175Z,54.58
2018-06-25T05:32:46.500Z,54.39
2018-06-25T05:33:46.219Z,54.77
2018-06-25T05:34:46.258Z,54.58
2018-06-25T05:35:46.281Z,54.58
2018-06-25T05:36:46.327Z,54.68
2018-06-25T05:37:46.342Z,54.68
2018-06-25T05:38:46.637Z,54.68
2018-06-25T05:39:46.560Z,54.49
2018-06-25T05:40:46.448Z,54.49
2018-06-25T05:41:46.471Z,54.87
2018-06-25T05:42:46.504Z,54.49
2018-06-25T05:43:46.545Z,54.77
2018-06-25T05:44:46.817Z,54.29
2018-06-25T05:45:46.610Z,54.29
2018-06-25T05:46:46.646Z,54.19
2018-06-25T05:47:46.667Z,54.00
2018-06-25T05:48:46.741Z,54.00
2018-06-25T05:49:46.725Z,54.29
2018-06-25T05:50:47.058Z,54.29
2018-06-25T05:51:46.791Z,54.29
2018-06-25T05:52:46.848Z,54.00
2018-06-25T05:53:46.853Z,54.29
2018-06-25T05:54:46.884Z,54.19
2018-06-25T05:55:46.918Z,54.29
2018-06-25T05:56:47.249Z,54.29
2018-06-25T05:57:46.984Z,54.19
2018-06-25T05:58:47.011Z,54.00
2018-06-25T05:59:47.044Z,54.00
2018-06-25T06:00:47.075Z,54.10
2018-06-25T06:01:47.110Z,54.00
2018-06-25T06:02:47.441Z,54.10
2018-06-25T06:03:47.174Z,54.10
2018-06-25T06:04:47.204Z,54.00
2018-06-25T06:05:47.238Z,54.00
2018-06-25T06:06:47.267Z,54.19
2018-06-25T06:07:47.299Z,53.91
2018-06-25T06:08:47.634Z,53.81
2018-06-25T06:09:47.364Z,54.19
2018-06-25T06:10:47.393Z,53.71
2018-06-25T06:11:47.431Z,54.19
2018-06-25T06:12:47.458Z,54.29
2018-06-25T06:13:47.506Z,54.10
2018-06-25T06:14:47.826Z,54.00
2018-06-25T06:15:47.554Z,54.10
2018-06-25T06:16:47.586Z,54.10
2018-06-25T06:17:47.638Z,54.10
2018-06-25T06:18:47.649Z,54.10
2018-06-25T06:19:47.696Z,54.19
2018-06-25T06:20:47.714Z,54.19
2018-06-25T06:21:47.999Z,54.10
2018-06-25T06:22:47.782Z,53.91
2018-06-25T06:23:47.821Z,53.91
2018-06-25T06:24:47.842Z,54.19
2018-06-25T06:25:47.882Z,54.10
2018-06-25T06:26:47.911Z,54.29
2018-06-25T06:27:47.936Z,53.71
2018-06-25T06:28:48.221Z,54.39
2018-06-25T06:29:48.016Z,54.10
2018-06-25T06:30:48.050Z,53.91
2018-06-25T06:31:48.067Z,53.91
2018-06-25T06:32:48.100Z,53.81
2018-06-25T06:33:48.152Z,53.91
2018-06-25T06:34:48.160Z,53.81
2018-06-25T06:35:48.513Z,53.71
2018-06-25T06:36:48.223Z,53.81
2018-06-25T06:37:48.267Z,53.52
2018-06-25T06:38:48.287Z,54.00
2018-06-25T06:39:48.378Z,53.81
2018-06-25T06:40:48.353Z,53.52
2018-06-25T06:41:48.391Z,53.81
2018-06-25T06:42:48.668Z,54.19
2018-06-25T06:43:48.451Z,54.00
2018-06-25T06:44:48.480Z,54.10
2018-06-25T06:45:48.525Z,53.71
2018-06-25T06:46:48.564Z,53.61
2018-06-25T06:47:48.576Z,53.33
2018-06-25T06:48:48.610Z,53.42
2018-06-25T06:49:48.894Z,53.23
2018-06-25T06:50:48.674Z,53.42
2018-06-25T06:51:48.713Z,53.42
2018-06-25T06:52:48.739Z,53.33
2018-06-25T06:53:48.774Z,53.42
2018-06-25T06:54:48.800Z,53.35
2018-06-25T06:55:48.841Z,53.42
2018-06-25T06:56:49.169Z,53.06
2018-06-25T06:57:48.996Z,53.16
2018-06-25T06:58:48.929Z,53.06
2018-06-25T06:59:48.961Z,53.16
2018-06-25T07:00:48.998Z,53.06
2018-06-25T07:01:49.029Z,53.06
2018-06-25T07:02:49.058Z,53.25
2018-06-25T07:03:49.341Z,53.35
2018-06-25T07:04:49.203Z,53.25
2018-06-25T07:05:49.155Z,53.25
2018-06-25T07:06:49.188Z,53.25
2018-06-25T07:07:49.219Z,53.16
2018-06-25T07:08:49.256Z,53.16
2018-06-25T07:09:49.285Z,53.35
2018-06-25T07:10:49.620Z,53.35
2018-06-25T07:11:49.447Z,53.35
2018-06-25T07:12:49.383Z,53.25
2018-06-25T07:13:49.414Z,53.16
2018-06-25T07:14:49.445Z,52.87
2018-06-25T07:15:49.481Z,52.97
2018-06-25T07:16:49.512Z,52.97
2018-06-25T07:17:49.796Z,52.48
2018-06-25T07:18:49.578Z,52.67
2018-06-25T07:19:49.606Z,52.58
2018-06-25T07:20:49.651Z,52.87
2018-06-25T07:21:49.672Z,52.67
2018-06-25T07:22:49.763Z,53.25
2018-06-25T07:23:49.735Z,52.77
2018-06-25T07:24:50.026Z,53.25
2018-06-25T07:25:49.801Z,52.67
2018-06-25T07:26:49.832Z,52.87
2018-06-25T07:27:49.864Z,52.87
2018-06-25T07:28:49.949Z,52.97
2018-06-25T07:29:49.944Z,52.97
2018-06-25T07:30:49.960Z,52.67
2018-06-25T07:31:50.295Z,52.48
2018-06-25T07:32:50.058Z,52.61
2018-06-25T07:33:50.062Z,52.58
2018-06-25T07:34:50.099Z,52.31
2018-06-25T07:35:50.127Z,52.39
2018-06-25T07:36:50.163Z,52.51
2018-06-25T07:37:50.196Z,52.41
2018-06-25T07:38:50.474Z,52.41
2018-06-25T07:39:50.276Z,52.31
2018-06-25T07:40:50.301Z,52.31
2018-06-25T07:41:50.323Z,52.31
2018-06-25T07:42:50.356Z,52.41
2018-06-25T07:43:50.384Z,52.39
2018-06-25T07:44:50.676Z,52.39
2018-06-25T07:45:50.482Z,52.51
2018-06-25T07:46:50.480Z,52.67
2018-06-25T07:47:50.535Z,52.29
2018-06-25T07:48:50.560Z,52.70
2018-06-25T07:49:50.642Z,52.70
2018-06-25T07:50:50.916Z,52.61
2018-06-25T07:51:50.657Z,51.90
2018-06-25T07:52:50.681Z,52.51
2018-06-25T07:53:50.718Z,52.22
2018-06-25T07:54:50.755Z,52.12
2018-06-25T07:55:50.785Z,52.31
2018-06-25T07:56:51.107Z,52.22
2018-06-25T07:57:50.845Z,52.31
2018-06-25T07:58:50.917Z,52.31
2018-06-25T07:59:50.913Z,52.22
2018-06-25T08:00:50.940Z,52.31
2018-06-25T08:01:50.976Z,52.31
2018-06-25T08:02:51.303Z,52.12
2018-06-25T08:03:51.045Z,52.41
2018-06-25T08:04:51.119Z,52.41
2018-06-25T08:05:51.098Z,52.31
2018-06-25T08:06:51.131Z,52.31
2018-06-25T08:07:51.166Z,52.41
2018-06-25T08:08:51.500Z,52.22
2018-06-25T08:09:51.303Z,52.31
2018-06-25T08:10:51.262Z,52.31
2018-06-25T08:11:51.293Z,52.22
2018-06-25T08:12:51.326Z,52.12
2018-06-25T08:13:51.364Z,51.83
2018-06-25T08:14:51.691Z,51.73
2018-06-25T08:15:51.427Z,51.73
2018-06-25T08:16:51.456Z,51.83
2018-06-25T08:17:51.489Z,51.64
2018-06-25T08:18:51.522Z,51.93
2018-06-25T08:19:51.610Z,51.73
2018-06-25T08:20:51.850Z,51.73
2018-06-25T08:21:51.624Z,51.73
2018-06-25T08:22:51.673Z,51.93
2018-06-25T08:23:51.687Z,51.44
2018-06-25T08:24:51.717Z,52.02
2018-06-25T08:25:51.753Z,51.64
2018-06-25T08:26:52.088Z,51.54
2018-06-25T08:27:51.815Z,51.64
2018-06-25T08:28:51.849Z,51.73
2018-06-25T08:29:51.994Z,51.54
2018-06-25T08:30:51.912Z,51.35
2018-06-25T08:31:52.001Z,51.64
2018-06-25T08:32:52.228Z,51.44
2018-06-25T08:33:52.117Z,51.44
2018-06-25T08:34:52.042Z,51.73
2018-06-25T08:35:52.077Z,51.73
2018-06-25T08:36:52.112Z,51.73
2018-06-25T08:37:52.174Z,51.73
2018-06-25T08:38:52.459Z,51.35
2018-06-25T08:39:52.207Z,51.35
2018-06-25T08:40:52.247Z,51.37
2018-06-25T08:41:52.289Z,51.35
2018-06-25T08:42:52.307Z,51.44
2018-06-25T08:43:52.340Z,51.15
2018-06-25T08:44:52.733Z,51.66
2018-06-25T08:45:52.455Z,51.15
2018-06-25T08:46:52.453Z,51.54
2018-06-25T08:47:52.471Z,51.28
2018-06-25T08:48:52.519Z,50.98
2018-06-25T08:49:52.538Z,51.08
2018-06-25T08:50:52.871Z,51.37
2018-06-25T08:51:52.643Z,51.28
2018-06-25T08:52:52.655Z,51.28
2018-06-25T08:53:52.670Z,51.37
2018-06-25T08:54:52.700Z,51.28
2018-06-25T08:55:52.737Z,51.28
2018-06-25T08:56:53.119Z,50.60
2018-06-25T08:57:52.936Z,50.70
2018-06-25T08:58:52.843Z,50.98
2018-06-25T08:59:52.892Z,51.28
2018-06-25T09:00:52.899Z,50.60
2018-06-25T09:01:52.934Z,50.70
2018-06-25T09:02:52.981Z,51.18
2018-06-25T09:03:53.306Z,50.89
2018-06-25T09:04:53.036Z,50.98
2018-06-25T09:05:53.068Z,50.98
2018-06-25T09:06:53.106Z,50.89
2018-06-25T09:07:53.134Z,50.89
2018-06-25T09:08:53.164Z,50.98
2018-06-25T09:09:53.208Z,50.60
2018-06-25T09:10:53.483Z,51.08
2018-06-25T09:11:53.262Z,51.28
2018-06-25T09:12:53.299Z,51.18
2018-06-25T09:13:53.331Z,50.89
2018-06-25T09:14:53.363Z,50.79
2018-06-25T09:15:53.406Z,50.98
2018-06-25T09:16:53.438Z,50.31
2018-06-25T09:17:53.768Z,50.50
2018-06-25T09:18:53.556Z,50.60
2018-06-25T09:19:53.536Z,50.31
2018-06-25T09:20:53.565Z,50.50
2018-06-25T09:21:53.601Z,50.50
2018-06-25T09:22:53.649Z,50.40
2018-06-25T09:23:53.664Z,50.31
2018-06-25T09:24:54.101Z,50.33
2018-06-25T09:25:53.751Z,50.52
2018-06-25T09:26:53.768Z,50.24
2018-06-25T09:27:53.815Z,50.33
2018-06-25T09:28:53.835Z,50.43
2018-06-25T09:29:53.866Z,50.33
2018-06-25T09:30:53.902Z,50.40
2018-06-25T09:31:54.187Z,50.24
2018-06-25T09:32:53.973Z,50.33
2018-06-25T09:33:54.015Z,50.04
2018-06-25T09:34:54.043Z,50.33
2018-06-25T09:35:54.068Z,50.14
2018-06-25T09:36:54.099Z,50.14
2018-06-25T09:37:54.136Z,50.24
2018-06-25T09:38:54.476Z,50.04
2018-06-25T09:39:54.205Z,50.33
2018-06-25T09:40:54.320Z,50.50
2018-06-25T09:41:54.273Z,50.31
2018-06-25T09:42:54.299Z,50.40
2018-06-25T09:43:54.332Z,50.31
2018-06-25T09:44:54.367Z,50.24
2018-06-25T09:45:54.775Z,50.14
2018-06-25T09:46:54.499Z,50.43
2018-06-25T09:47:54.481Z,50.43
2018-06-25T09:48:54.501Z,50.33
2018-06-25T09:49:54.532Z,50.43
2018-06-25T09:50:54.565Z,50.33
2018-06-25T09:51:54.605Z,50.52
2018-06-25T09:52:54.933Z,50.33
2018-06-25T09:53:54.674Z,50.52
2018-06-25T09:54:54.816Z,50.43
2018-06-25T09:55:54.738Z,50.33
2018-06-25T09:56:54.765Z,50.24
2018-06-25T09:57:54.803Z,50.50
2018-06-25T09:58:54.835Z,50.04
2018-06-25T09:59:55.168Z,50.52
2018-06-25T10:00:54.902Z,50.52
2018-06-25T10:01:54.949Z,50.14
2018-06-25T10:02:54.970Z,50.21
2018-06-25T10:03:55.007Z,50.24
2018-06-25T10:04:55.033Z,50.33
2018-06-25T10:05:55.069Z,50.24
2018-06-25T10:06:55.437Z,50.43
2018-06-25T10:07:55.140Z,50.24
2018-06-25T10:08:55.181Z,50.62
2018-06-25T10:09:55.204Z,49.75
2018-06-25T10:10:55.284Z,49.46
2018-06-25T10:11:55.283Z,49.56
2018-06-25T10:12:55.305Z,49.65
2018-06-25T10:13:55.590Z,49.85
2018-06-25T10:14:55.373Z,49.95
2018-06-25T10:15:55.409Z,49.85
2018-06-25T10:16:55.449Z,49.85
2018-06-25T10:17:55.471Z,49.85
2018-06-25T10:18:55.635Z,49.95
2018-06-25T10:19:55.825Z,49.85
2018-06-25T10:20:55.823Z,49.85
2018-06-25T10:21:55.606Z,49.65
2018-06-25T10:22:55.641Z,49.95
2018-06-25T10:23:55.674Z,49.85
2018-06-25T10:24:55.713Z,49.75
2018-06-25T10:25:55.770Z,49.56
2018-06-25T10:26:56.080Z,49.58
2018-06-25T10:27:55.812Z,49.17
2018-06-25T10:28:55.892Z,49.56
2018-06-25T10:29:55.883Z,49.37
2018-06-25T10:30:55.911Z,49.46
2018-06-25T10:31:55.961Z,49.37
2018-06-25T10:32:56.227Z,49.49
2018-06-25T10:33:56.010Z,49.87
2018-06-25T10:34:56.044Z,49.77
2018-06-25T10:35:56.080Z,49.39
2018-06-25T10:36:56.112Z,49.87
2018-06-25T10:37:56.157Z,49.29
2018-06-25T10:38:56.429Z,48.90
2018-06-25T10:39:56.227Z,49.10
2018-06-25T10:40:56.251Z,48.81
2018-06-25T10:41:56.322Z,49.10
2018-06-25T10:42:56.321Z,48.81
2018-06-25T10:43:56.402Z,49.10
2018-06-25T10:44:56.643Z,49.39
2018-06-25T10:45:56.420Z,49.19
2018-06-25T10:46:56.468Z,49.00
2018-06-25T10:47:56.506Z,49.39
2018-06-25T10:48:56.532Z,49.10
2018-06-25T10:49:56.556Z,48.90
2018-06-25T10:50:56.849Z,49.00
2018-06-25T10:51:56.620Z,49.00
2018-06-25T10:52:56.657Z,49.10
2018-06-25T10:53:56.690Z,49.10
2018-06-25T10:54:56.726Z,49.19
2018-06-25T10:55:56.758Z,49.39
2018-06-25T10:56:57.095Z,48.90
2018-06-25T10:57:56.828Z,49.29
2018-06-25T10:58:56.857Z,49.10
2018-06-25T10:59:57.183Z,49.10
2018-06-25T11:00:56.927Z,49.77
2018-06-25T11:01:56.990Z,49.29
2018-06-25T11:02:57.241Z,49.29
2018-06-25T11:03:57.029Z,49.58
2018-06-25T11:04:57.059Z,49.87
2018-06-25T11:05:57.113Z,49.77
2018-06-25T11:06:57.127Z,49.49
2018-06-25T11:07:57.176Z,49.29
2018-06-25T11:08:57.447Z,49.29
2018-06-25T11:09:57.233Z,49.77
2018-06-25T11:10:57.264Z,49.58
2018-06-25T11:11:57.298Z,49.77
2018-06-25T11:12:57.349Z,49.77
2018-06-25T11:13:57.364Z,49.68
2018-06-25T11:14:57.656Z,49.68
2018-06-25T11:15:57.433Z,49.75
2018-06-25T11:16:57.488Z,49.97
2018-06-25T11:17:57.501Z,49.46
2018-06-25T11:18:57.547Z,49.49
2018-06-25T11:19:57.619Z,49.27
2018-06-25T11:20:57.888Z,49.56
2018-06-25T11:21:57.634Z,49.68
2018-06-25T11:22:57.677Z,49.49
2018-06-25T11:23:57.740Z,49.56
2018-06-25T11:24:57.751Z,49.49
2018-06-25T11:25:57.801Z,49.58
2018-06-25T11:26:58.183Z,49.58
2018-06-25T11:27:57.852Z,49.56
2018-06-25T11:28:57.925Z,49.58
2018-06-25T11:29:57.956Z,49.49
2018-06-25T11:30:57.941Z,49.58
2018-06-25T11:31:58.028Z,49.58
2018-06-25T11:32:58.304Z,49.49
2018-06-25T11:33:58.072Z,49.77
2018-06-25T11:34:58.079Z,49.46
2018-06-25T11:35:58.116Z,49.75
2018-06-25T11:36:58.140Z,49.75
2018-06-25T11:37:58.192Z,49.77
2018-06-25T11:38:58.506Z,49.77
2018-06-25T11:39:58.254Z,49.68
2018-06-25T11:40:58.277Z,49.77
2018-06-25T11:41:58.310Z,49.75
2018-06-25T11:42:58.346Z,49.77
2018-06-25T11:43:58.381Z,49.77
2018-06-25T11:44:58.408Z,49.58
2018-06-25T11:45:58.791Z,49.68
2018-06-25T11:46:58.477Z,49.77
2018-06-25T11:47:58.511Z,49.77
2018-06-25T11:48:58.558Z,49.29
2018-06-25T11:49:58.575Z,49.87
2018-06-25T11:50:58.608Z,49.68
2018-06-25T11:51:58.644Z,49.29
2018-06-25T11:52:58.978Z,49.77
2018-06-25T11:53:58.712Z,49.87
2018-06-25T11:54:58.743Z,49.87
2018-06-25T11:55:58.779Z,49.87
2018-06-25T11:56:58.818Z,49.29
2018-06-25T11:57:58.845Z,49.77
2018-06-25T11:58:58.878Z,49.29
2018-06-25T11:59:59.491Z,49.29
2018-06-25T12:00:58.956Z,49.10
2018-06-25T12:01:59.075Z,49.19
2018-06-25T12:02:59.190Z,49.00
2018-06-25T12:03:59.052Z,49.10
2018-06-25T12:04:59.088Z,49.29
2018-06-25T12:05:59.115Z,49.10
2018-06-25T12:06:59.403Z,49.19
2018-06-25T12:07:59.208Z,49.10
2018-06-25T12:08:59.226Z,49.39
2018-06-25T12:09:59.254Z,49.39
2018-06-25T12:10:59.295Z,48.90
2018-06-25T12:11:59.329Z,49.10
2018-06-25T12:12:59.374Z,49.19
2018-06-25T12:13:59.695Z,49.19
2018-06-25T12:14:59.419Z,49.19
2018-06-25T12:15:59.468Z,49.19
2018-06-25T12:16:59.491Z,49.10
2018-06-25T12:17:59.560Z,49.39
2018-06-25T12:18:59.571Z,49.10
2018-06-25T12:19:59.636Z,49.00
2018-06-25T12:20:59.961Z,49.19
2018-06-25T12:21:59.806Z,49.00
2018-06-25T12:22:59.769Z,49.00
2018-06-25T12:23:59.739Z,49.00
2018-06-25T12:24:59.759Z,49.00
2018-06-25T12:25:59.800Z,48.81
2018-06-25T12:26:59.841Z,48.81
2018-06-25T12:28:00.128Z,48.81
2018-06-25T12:28:59.899Z,48.90
2018-06-25T12:29:59.981Z,48.81
2018-06-25T12:30:59.977Z,48.81
2018-06-25T12:32:00.010Z,48.71
2018-06-25T12:33:00.030Z,48.61
2018-06-25T12:34:00.064Z,48.61
2018-06-25T12:35:00.383Z,48.81
2018-06-25T12:36:00.132Z,48.90
2018-06-25T12:37:00.166Z,48.81
2018-06-25T12:38:00.273Z,48.71
2018-06-25T12:39:00.240Z,48.61
2018-06-25T12:40:00.282Z,48.61
2018-06-25T12:41:00.303Z,48.71
2018-06-25T12:42:00.641Z,48.74
2018-06-25T12:43:00.416Z,48.71
2018-06-25T12:44:00.405Z,48.71
2018-06-25T12:45:00.443Z,48.71
2018-06-25T12:46:00.497Z,48.81
2018-06-25T12:47:00.567Z,48.83
2018-06-25T12:48:00.561Z,48.83
2018-06-25T12:49:00.882Z,48.52
2018-06-25T12:50:00.680Z,48.54
2018-06-25T12:51:00.648Z,48.54
2018-06-25T12:52:00.679Z,48.54
2018-06-25T12:53:00.923Z,48.54